sensor_id;sensor_type;location;lat;lon;timestamp;P1;durP1;ratioP1;P2;durP2;ratioP2
54745;SDS011;40640;48.130;11.356;2022-09-29T00:02:43;3.83;;;1.98;;
54745;SDS011;40640;48.130;11.356;2022-09-29T00:06:46;2.38;;;1.75;;
54745;SDS011;40640;48.130;11.356;2022-09-29T00:10:50;3.53;;;2.00;;
54745;SDS011;40640;48.130;11.356;2022-09-29T00:14:53;5.45;;;1.70;;
54745;SDS011;40640;48.130;11.356;2022-09-29T00:18:55;2.97;;;1.50;;
54745;SDS011;40640;48.130;11.356;2022-09-29T00:22:58;1.50;;;1.30;;
54745;SDS011;40640;48.130;11.356;2022-09-29T00:27:02;1.52;;;1.35;;
54745;SDS011;40640;48.130;11.356;2022-09-29T00:31:06;4.03;;;1.00;;
54745;SDS011;40640;48.130;11.356;2022-09-29T00:35:10;3.08;;;1.25;;
54745;SDS011;40640;48.130;11.356;2022-09-29T00:39:12;2.90;;;1.00;;
54745;SDS011;40640;48.130;11.356;2022-09-29T00:43:18;1.90;;;1.15;;
54745;SDS011;40640;48.130;11.356;2022-09-29T00:47:23;3.53;;;2.10;;
54745;SDS011;40640;48.130;11.356;2022-09-29T00:51:26;1.27;;;1.10;;
54745;SDS011;40640;48.130;11.356;2022-09-29T00:55:33;2.03;;;1.30;;
54745;SDS011;40640;48.130;11.356;2022-09-29T00:59:42;1.95;;;1.60;;
54745;SDS011;40640;48.130;11.356;2022-09-29T01:03:50;2.45;;;2.03;;
54745;SDS011;40640;48.130;11.356;2022-09-29T01:07:57;1.83;;;1.70;;
54745;SDS011;40640;48.130;11.356;2022-09-29T01:12:05;1.90;;;1.73;;
54745;SDS011;40640;48.130;11.356;2022-09-29T01:16:10;2.85;;;1.70;;
54745;SDS011;40640;48.130;11.356;2022-09-29T01:20:13;2.10;;;1.40;;
54745;SDS011;40640;48.130;11.356;2022-09-29T01:24:30;2.00;;;1.58;;
54745;SDS011;40640;48.130;11.356;2022-09-29T01:28:54;3.50;;;1.30;;
54745;SDS011;40640;48.130;11.356;2022-09-29T01:33:22;3.08;;;1.80;;
54745;SDS011;40640;48.130;11.356;2022-09-29T01:37:36;3.65;;;1.95;;
54745;SDS011;40640;48.130;11.356;2022-09-29T01:41:50;2.90;;;1.73;;
54745;SDS011;40640;48.130;11.356;2022-09-29T01:45:58;2.00;;;1.40;;
54745;SDS011;40640;48.130;11.356;2022-09-29T01:50:06;1.63;;;1.20;;
54745;SDS011;40640;48.130;11.356;2022-09-29T01:54:14;13.07;;;3.78;;
54745;SDS011;40640;48.130;11.356;2022-09-29T01:58:22;9.65;;;4.30;;
54745;SDS011;40640;48.130;11.356;2022-09-29T02:02:29;7.22;;;2.97;;
54745;SDS011;40640;48.130;11.356;2022-09-29T02:06:37;2.30;;;1.70;;
54745;SDS011;40640;48.130;11.356;2022-09-29T02:10:45;2.05;;;1.60;;
54745;SDS011;40640;48.130;11.356;2022-09-29T02:14:51;1.70;;;1.50;;
54745;SDS011;40640;48.130;11.356;2022-09-29T02:18:56;5.25;;;1.55;;
54745;SDS011;40640;48.130;11.356;2022-09-29T02:23:05;1.27;;;1.15;;
54745;SDS011;40640;48.130;11.356;2022-09-29T02:27:08;3.20;;;1.75;;
54745;SDS011;40640;48.130;11.356;2022-09-29T02:31:11;2.13;;;1.58;;
54745;SDS011;40640;48.130;11.356;2022-09-29T02:35:15;2.30;;;1.50;;
54745;SDS011;40640;48.130;11.356;2022-09-29T02:39:23;1.90;;;1.40;;
54745;SDS011;40640;48.130;11.356;2022-09-29T02:43:37;3.58;;;1.40;;
54745;SDS011;40640;48.130;11.356;2022-09-29T02:48:01;4.57;;;2.25;;
54745;SDS011;40640;48.130;11.356;2022-09-29T02:52:24;2.22;;;1.65;;
54745;SDS011;40640;48.130;11.356;2022-09-29T02:56:37;2.15;;;1.92;;
54745;SDS011;40640;48.130;11.356;2022-09-29T03:00:46;1.50;;;1.10;;
54745;SDS011;40640;48.130;11.356;2022-09-29T03:04:49;1.60;;;1.30;;
54745;SDS011;40640;48.130;11.356;2022-09-29T03:08:52;2.30;;;1.20;;
54745;SDS011;40640;48.130;11.356;2022-09-29T03:12:56;1.30;;;1.20;;
54745;SDS011;40640;48.130;11.356;2022-09-29T03:16:59;1.20;;;1.10;;
54745;SDS011;40640;48.130;11.356;2022-09-29T03:21:02;1.52;;;1.42;;
54745;SDS011;40640;48.130;11.356;2022-09-29T03:25:05;1.38;;;1.15;;
54745;SDS011;40640;48.130;11.356;2022-09-29T03:29:09;1.58;;;1.38;;
54745;SDS011;40640;48.130;11.356;2022-09-29T03:33:12;4.32;;;1.60;;
54745;SDS011;40640;48.130;11.356;2022-09-29T03:37:15;1.20;;;1.10;;
54745;SDS011;40640;48.130;11.356;2022-09-29T03:41:17;1.20;;;1.10;;
54745;SDS011;40640;48.130;11.356;2022-09-29T03:45:21;1.20;;;1.10;;
54745;SDS011;40640;48.130;11.356;2022-09-29T03:49:24;2.35;;;1.25;;
54745;SDS011;40640;48.130;11.356;2022-09-29T03:53:27;1.90;;;1.10;;
54745;SDS011;40640;48.130;11.356;2022-09-29T03:57:30;1.67;;;1.38;;
54745;SDS011;40640;48.130;11.356;2022-09-29T04:01:34;3.28;;;0.88;;
54745;SDS011;40640;48.130;11.356;2022-09-29T04:05:38;1.00;;;0.90;;
54745;SDS011;40640;48.130;11.356;2022-09-29T04:09:41;1.10;;;1.00;;
54745;SDS011;40640;48.130;11.356;2022-09-29T04:13:44;3.35;;;1.10;;
54745;SDS011;40640;48.130;11.356;2022-09-29T04:17:48;2.53;;;1.35;;
54745;SDS011;40640;48.130;11.356;2022-09-29T04:21:50;1.55;;;1.10;;
54745;SDS011;40640;48.130;11.356;2022-09-29T04:25:53;5.20;;;1.23;;
54745;SDS011;40640;48.130;11.356;2022-09-29T04:29:56;4.03;;;1.33;;
54745;SDS011;40640;48.130;11.356;2022-09-29T04:34:00;1.13;;;1.05;;
54745;SDS011;40640;48.130;11.356;2022-09-29T04:38:03;3.08;;;1.52;;
54745;SDS011;40640;48.130;11.356;2022-09-29T04:42:06;2.88;;;1.35;;
54745;SDS011;40640;48.130;11.356;2022-09-29T04:46:08;2.08;;;1.45;;
54745;SDS011;40640;48.130;11.356;2022-09-29T04:50:13;2.15;;;1.40;;
54745;SDS011;40640;48.130;11.356;2022-09-29T04:54:16;1.38;;;1.27;;
54745;SDS011;40640;48.130;11.356;2022-09-29T04:58:19;2.42;;;1.10;;
54745;SDS011;40640;48.130;11.356;2022-09-29T05:02:22;1.73;;;1.35;;
54745;SDS011;40640;48.130;11.356;2022-09-29T05:06:26;6.60;;;1.50;;
54745;SDS011;40640;48.130;11.356;2022-09-29T05:10:29;1.60;;;1.40;;
54745;SDS011;40640;48.130;11.356;2022-09-29T05:14:32;2.47;;;1.33;;
54745;SDS011;40640;48.130;11.356;2022-09-29T05:18:35;1.50;;;1.30;;
54745;SDS011;40640;48.130;11.356;2022-09-29T05:22:39;3.60;;;2.20;;
54745;SDS011;40640;48.130;11.356;2022-09-29T05:26:41;2.10;;;1.73;;
54745;SDS011;40640;48.130;11.356;2022-09-29T05:30:44;1.50;;;1.40;;
54745;SDS011;40640;48.130;11.356;2022-09-29T05:34:47;3.03;;;1.88;;
54745;SDS011;40640;48.130;11.356;2022-09-29T05:38:51;2.10;;;1.88;;
54745;SDS011;40640;48.130;11.356;2022-09-29T05:42:54;2.25;;;1.88;;
54745;SDS011;40640;48.130;11.356;2022-09-29T05:47:00;2.45;;;2.13;;
54745;SDS011;40640;48.130;11.356;2022-09-29T05:51:05;2.35;;;1.92;;
54745;SDS011;40640;48.130;11.356;2022-09-29T05:55:10;3.78;;;1.83;;
54745;SDS011;40640;48.130;11.356;2022-09-29T05:59:13;2.15;;;1.95;;
54745;SDS011;40640;48.130;11.356;2022-09-29T06:03:17;3.17;;;2.03;;
54745;SDS011;40640;48.130;11.356;2022-09-29T06:07:20;2.25;;;2.05;;
54745;SDS011;40640;48.130;11.356;2022-09-29T06:11:25;16.08;;;2.75;;
54745;SDS011;40640;48.130;11.356;2022-09-29T06:15:28;3.10;;;2.22;;
54745;SDS011;40640;48.130;11.356;2022-09-29T06:19:31;8.52;;;2.40;;
54745;SDS011;40640;48.130;11.356;2022-09-29T06:23:34;3.15;;;2.13;;
54745;SDS011;40640;48.130;11.356;2022-09-29T06:27:39;3.30;;;2.08;;
54745;SDS011;40640;48.130;11.356;2022-09-29T06:31:41;4.13;;;1.98;;
54745;SDS011;40640;48.130;11.356;2022-09-29T06:35:44;2.90;;;1.70;;
54745;SDS011;40640;48.130;11.356;2022-09-29T06:40:06;4.28;;;1.30;;
54745;SDS011;40640;48.130;11.356;2022-09-29T06:44:13;1.48;;;1.38;;
54745;SDS011;40640;48.130;11.356;2022-09-29T06:48:15;3.33;;;1.80;;
54745;SDS011;40640;48.130;11.356;2022-09-29T06:52:18;4.25;;;1.40;;
54745;SDS011;40640;48.130;11.356;2022-09-29T06:56:22;4.70;;;1.48;;
54745;SDS011;40640;48.130;11.356;2022-09-29T07:00:26;2.58;;;1.17;;
54745;SDS011;40640;48.130;11.356;2022-09-29T07:04:28;4.93;;;1.88;;
54745;SDS011;40640;48.130;11.356;2022-09-29T07:08:31;1.90;;;1.38;;
54745;SDS011;40640;48.130;11.356;2022-09-29T07:12:35;5.63;;;1.58;;
54745;SDS011;40640;48.130;11.356;2022-09-29T07:16:39;3.45;;;2.30;;
54745;SDS011;40640;48.130;11.356;2022-09-29T07:20:42;5.47;;;2.08;;
54745;SDS011;40640;48.130;11.356;2022-09-29T07:24:45;5.65;;;2.20;;
54745;SDS011;40640;48.130;11.356;2022-09-29T07:28:48;5.30;;;2.22;;
54745;SDS011;40640;48.130;11.356;2022-09-29T07:32:52;3.80;;;2.30;;
54745;SDS011;40640;48.130;11.356;2022-09-29T07:37:02;4.40;;;1.90;;
54745;SDS011;40640;48.130;11.356;2022-09-29T07:41:06;3.47;;;1.80;;
54745;SDS011;40640;48.130;11.356;2022-09-29T07:45:10;3.33;;;2.17;;
54745;SDS011;40640;48.130;11.356;2022-09-29T07:49:14;5.72;;;2.40;;
54745;SDS011;40640;48.130;11.356;2022-09-29T07:53:17;4.10;;;2.28;;
54745;SDS011;40640;48.130;11.356;2022-09-29T07:57:20;4.03;;;1.98;;
54745;SDS011;40640;48.130;11.356;2022-09-29T08:01:23;4.32;;;2.42;;
54745;SDS011;40640;48.130;11.356;2022-09-29T08:05:27;2.63;;;2.00;;
54745;SDS011;40640;48.130;11.356;2022-09-29T08:09:30;2.65;;;1.85;;
54745;SDS011;40640;48.130;11.356;2022-09-29T08:13:41;2.30;;;1.52;;
54745;SDS011;40640;48.130;11.356;2022-09-29T08:17:45;4.22;;;1.98;;
54745;SDS011;40640;48.130;11.356;2022-09-29T08:21:49;4.65;;;1.40;;
54745;SDS011;40640;48.130;11.356;2022-09-29T08:25:57;2.25;;;1.42;;
54745;SDS011;40640;48.130;11.356;2022-09-29T08:30:02;1.95;;;1.15;;
54745;SDS011;40640;48.130;11.356;2022-09-29T08:34:05;2.83;;;1.27;;
54745;SDS011;40640;48.130;11.356;2022-09-29T08:38:09;1.95;;;1.20;;
54745;SDS011;40640;48.130;11.356;2022-09-29T08:42:14;4.78;;;0.95;;
54745;SDS011;40640;48.130;11.356;2022-09-29T08:46:25;1.17;;;1.02;;
54745;SDS011;40640;48.130;11.356;2022-09-29T08:50:39;1.95;;;1.20;;
54745;SDS011;40640;48.130;11.356;2022-09-29T08:54:47;2.40;;;1.50;;
54745;SDS011;40640;48.130;11.356;2022-09-29T08:58:54;4.00;;;1.58;;
54745;SDS011;40640;48.130;11.356;2022-09-29T09:03:04;3.50;;;1.80;;
54745;SDS011;40640;48.130;11.356;2022-09-29T09:07:16;6.65;;;2.00;;
54745;SDS011;40640;48.130;11.356;2022-09-29T09:11:31;7.55;;;2.60;;
54745;SDS011;40640;48.130;11.356;2022-09-29T09:15:45;8.93;;;2.10;;
54745;SDS011;40640;48.130;11.356;2022-09-29T09:19:56;4.00;;;1.90;;
54745;SDS011;40640;48.130;11.356;2022-09-29T09:24:14;3.10;;;1.63;;
54745;SDS011;40640;48.130;11.356;2022-09-29T09:28:26;6.90;;;1.58;;
54745;SDS011;40640;48.130;11.356;2022-09-29T09:32:34;2.50;;;1.38;;
54745;SDS011;40640;48.130;11.356;2022-09-29T09:36:44;4.07;;;1.35;;
54745;SDS011;40640;48.130;11.356;2022-09-29T09:41:05;4.38;;;1.25;;
54745;SDS011;40640;48.130;11.356;2022-09-29T09:45:11;3.78;;;1.20;;
54745;SDS011;40640;48.130;11.356;2022-09-29T09:49:20;1.75;;;1.33;;
54745;SDS011;40640;48.130;11.356;2022-09-29T09:53:27;3.17;;;1.40;;
54745;SDS011;40640;48.130;11.356;2022-09-29T09:57:52;3.35;;;1.40;;
54745;SDS011;40640;48.130;11.356;2022-09-29T10:02:06;2.22;;;1.27;;
54745;SDS011;40640;48.130;11.356;2022-09-29T10:06:17;3.28;;;1.63;;
54745;SDS011;40640;48.130;11.356;2022-09-29T10:10:21;2.03;;;1.20;;
54745;SDS011;40640;48.130;11.356;2022-09-29T10:14:25;3.85;;;1.50;;
54745;SDS011;40640;48.130;11.356;2022-09-29T10:18:31;2.08;;;1.63;;
54745;SDS011;40640;48.130;11.356;2022-09-29T10:22:38;3.50;;;2.22;;
54745;SDS011;40640;48.130;11.356;2022-09-29T10:26:42;5.18;;;1.95;;
54745;SDS011;40640;48.130;11.356;2022-09-29T10:30:47;3.35;;;1.80;;
54745;SDS011;40640;48.130;11.356;2022-09-29T10:34:53;2.10;;;1.73;;
54745;SDS011;40640;48.130;11.356;2022-09-29T10:39:08;2.70;;;1.30;;
54745;SDS011;40640;48.130;11.356;2022-09-29T10:43:34;2.75;;;1.30;;
54745;SDS011;40640;48.130;11.356;2022-09-29T10:47:38;2.70;;;1.20;;
54745;SDS011;40640;48.130;11.356;2022-09-29T10:51:49;2.33;;;1.15;;
54745;SDS011;40640;48.130;11.356;2022-09-29T10:55:56;2.90;;;1.65;;
54745;SDS011;40640;48.130;11.356;2022-09-29T11:00:02;4.13;;;1.63;;
54745;SDS011;40640;48.130;11.356;2022-09-29T11:04:12;3.83;;;1.27;;
54745;SDS011;40640;48.130;11.356;2022-09-29T11:08:21;2.28;;;1.60;;
54745;SDS011;40640;48.130;11.356;2022-09-29T11:12:29;5.45;;;2.10;;
54745;SDS011;40640;48.130;11.356;2022-09-29T11:16:34;1.40;;;1.30;;
54745;SDS011;40640;48.130;11.356;2022-09-29T11:20:38;2.97;;;1.80;;
54745;SDS011;40640;48.130;11.356;2022-09-29T11:24:49;2.00;;;1.45;;
54745;SDS011;40640;48.130;11.356;2022-09-29T11:29:20;4.57;;;1.67;;
54745;SDS011;40640;48.130;11.356;2022-09-29T11:37:49;5.15;;;1.20;;
54745;SDS011;40640;48.130;11.356;2022-09-29T11:42:05;3.97;;;1.52;;
54745;SDS011;40640;48.130;11.356;2022-09-29T11:46:28;1.17;;;0.98;;
54745;SDS011;40640;48.130;11.356;2022-09-29T11:50:40;1.60;;;1.17;;
54745;SDS011;40640;48.130;11.356;2022-09-29T11:54:54;1.73;;;1.25;;
54745;SDS011;40640;48.130;11.356;2022-09-29T11:59:16;2.42;;;1.38;;
54745;SDS011;40640;48.130;11.356;2022-09-29T12:03:45;5.57;;;1.48;;
54745;SDS011;40640;48.130;11.356;2022-09-29T12:07:57;4.28;;;1.80;;
54745;SDS011;40640;48.130;11.356;2022-09-29T12:12:10;5.05;;;1.88;;
54745;SDS011;40640;48.130;11.356;2022-09-29T12:16:26;2.30;;;1.52;;
54745;SDS011;40640;48.130;11.356;2022-09-29T12:20:34;1.77;;;1.27;;
54745;SDS011;40640;48.130;11.356;2022-09-29T12:24:40;2.60;;;1.73;;
54745;SDS011;40640;48.130;11.356;2022-09-29T12:28:47;6.63;;;1.73;;
54745;SDS011;40640;48.130;11.356;2022-09-29T12:32:59;1.67;;;1.55;;
54745;SDS011;40640;48.130;11.356;2022-09-29T12:37:09;3.22;;;1.40;;
54745;SDS011;40640;48.130;11.356;2022-09-29T12:41:18;2.75;;;2.17;;
54745;SDS011;40640;48.130;11.356;2022-09-29T12:45:25;2.38;;;1.67;;
54745;SDS011;40640;48.130;11.356;2022-09-29T12:49:38;1.75;;;1.52;;
54745;SDS011;40640;48.130;11.356;2022-09-29T12:53:54;2.78;;;1.90;;
54745;SDS011;40640;48.130;11.356;2022-09-29T12:58:08;6.20;;;1.83;;
54745;SDS011;40640;48.130;11.356;2022-09-29T13:02:22;3.45;;;1.92;;
54745;SDS011;40640;48.130;11.356;2022-09-29T13:06:46;3.10;;;1.75;;
54745;SDS011;40640;48.130;11.356;2022-09-29T13:10:57;4.50;;;1.95;;
54745;SDS011;40640;48.130;11.356;2022-09-29T13:15:25;1.92;;;1.52;;
54745;SDS011;40640;48.130;11.356;2022-09-29T13:19:43;2.40;;;1.48;;
54745;SDS011;40640;48.130;11.356;2022-09-29T13:24:07;1.38;;;1.23;;
54745;SDS011;40640;48.130;11.356;2022-09-29T13:28:23;1.90;;;1.70;;
54745;SDS011;40640;48.130;11.356;2022-09-29T13:32:32;3.35;;;2.25;;
54745;SDS011;40640;48.130;11.356;2022-09-29T13:36:45;2.03;;;1.67;;
54745;SDS011;40640;48.130;11.356;2022-09-29T13:45:13;2.70;;;1.80;;
54745;SDS011;40640;48.130;11.356;2022-09-29T13:49:27;3.58;;;2.17;;
54745;SDS011;40640;48.130;11.356;2022-09-29T13:53:35;3.25;;;1.85;;
54745;SDS011;40640;48.130;11.356;2022-09-29T13:57:40;2.22;;;1.63;;
54745;SDS011;40640;48.130;11.356;2022-09-29T14:01:52;4.43;;;2.72;;
54745;SDS011;40640;48.130;11.356;2022-09-29T14:06:05;4.60;;;2.40;;
54745;SDS011;40640;48.130;11.356;2022-09-29T14:10:37;2.55;;;1.83;;
54745;SDS011;40640;48.130;11.356;2022-09-29T14:14:44;4.60;;;2.20;;
54745;SDS011;40640;48.130;11.356;2022-09-29T14:18:52;2.83;;;1.70;;
54745;SDS011;40640;48.130;11.356;2022-09-29T14:22:59;6.35;;;2.00;;
54745;SDS011;40640;48.130;11.356;2022-09-29T14:27:18;2.22;;;1.80;;
54745;SDS011;40640;48.130;11.356;2022-09-29T14:31:28;7.25;;;2.00;;
54745;SDS011;40640;48.130;11.356;2022-09-29T14:35:33;7.32;;;2.25;;
54745;SDS011;40640;48.130;11.356;2022-09-29T14:39:38;3.35;;;2.17;;
54745;SDS011;40640;48.130;11.356;2022-09-29T14:43:41;6.13;;;2.10;;
54745;SDS011;40640;48.130;11.356;2022-09-29T14:47:49;3.50;;;1.80;;
54745;SDS011;40640;48.130;11.356;2022-09-29T14:52:19;2.70;;;1.92;;
54745;SDS011;40640;48.130;11.356;2022-09-29T14:56:36;3.50;;;2.20;;
54745;SDS011;40640;48.130;11.356;2022-09-29T15:00:52;4.00;;;2.00;;
54745;SDS011;40640;48.130;11.356;2022-09-29T15:05:14;3.90;;;2.00;;
54745;SDS011;40640;48.130;11.356;2022-09-29T15:09:34;3.67;;;2.50;;
54745;SDS011;40640;48.130;11.356;2022-09-29T15:13:38;3.50;;;2.00;;
54745;SDS011;40640;48.130;11.356;2022-09-29T15:17:44;3.53;;;1.85;;
54745;SDS011;40640;48.130;11.356;2022-09-29T15:21:59;4.20;;;2.17;;
54745;SDS011;40640;48.130;11.356;2022-09-29T15:26:12;4.15;;;2.75;;
54745;SDS011;40640;48.130;11.356;2022-09-29T15:30:17;5.70;;;4.20;;
54745;SDS011;40640;48.130;11.356;2022-09-29T15:34:22;5.82;;;4.10;;
54745;SDS011;40640;48.130;11.356;2022-09-29T15:38:29;4.78;;;3.03;;
54745;SDS011;40640;48.130;11.356;2022-09-29T15:42:38;1.92;;;1.65;;
54745;SDS011;40640;48.130;11.356;2022-09-29T15:46:46;2.65;;;1.35;;
54745;SDS011;40640;48.130;11.356;2022-09-29T15:50:50;3.83;;;1.60;;
54745;SDS011;40640;48.130;11.356;2022-09-29T15:54:57;1.95;;;1.30;;
54745;SDS011;40640;48.130;11.356;2022-09-29T15:59:00;1.63;;;1.08;;
54745;SDS011;40640;48.130;11.356;2022-09-29T16:03:05;2.28;;;1.58;;
54745;SDS011;40640;48.130;11.356;2022-09-29T16:07:16;2.20;;;1.60;;
54745;SDS011;40640;48.130;11.356;2022-09-29T16:11:24;3.55;;;2.13;;
54745;SDS011;40640;48.130;11.356;2022-09-29T16:15:30;2.28;;;1.70;;
54745;SDS011;40640;48.130;11.356;2022-09-29T16:19:34;4.60;;;2.05;;
54745;SDS011;40640;48.130;11.356;2022-09-29T16:23:40;2.92;;;2.00;;
54745;SDS011;40640;48.130;11.356;2022-09-29T16:27:50;7.03;;;3.83;;
54745;SDS011;40640;48.130;11.356;2022-09-29T16:31:55;5.85;;;3.15;;
54745;SDS011;40640;48.130;11.356;2022-09-29T16:36:02;4.82;;;2.80;;
54745;SDS011;40640;48.130;11.356;2022-09-29T16:40:16;6.20;;;2.58;;
54745;SDS011;40640;48.130;11.356;2022-09-29T16:44:28;7.22;;;3.40;;
54745;SDS011;40640;48.130;11.356;2022-09-29T16:48:35;14.40;;;7.05;;
54745;SDS011;40640;48.130;11.356;2022-09-29T16:52:42;4.60;;;3.58;;
54745;SDS011;40640;48.130;11.356;2022-09-29T16:56:47;7.28;;;3.50;;
54745;SDS011;40640;48.130;11.356;2022-09-29T17:01:11;6.78;;;3.80;;
54745;SDS011;40640;48.130;11.356;2022-09-29T17:05:14;8.05;;;5.07;;
54745;SDS011;40640;48.130;11.356;2022-09-29T17:09:17;6.63;;;3.78;;
54745;SDS011;40640;48.130;11.356;2022-09-29T17:13:24;4.57;;;2.88;;
54745;SDS011;40640;48.130;11.356;2022-09-29T17:17:32;5.10;;;3.00;;
54745;SDS011;40640;48.130;11.356;2022-09-29T17:21:35;4.60;;;2.95;;
54745;SDS011;40640;48.130;11.356;2022-09-29T17:25:39;8.50;;;3.50;;
54745;SDS011;40640;48.130;11.356;2022-09-29T17:29:44;2.70;;;2.27;;
54745;SDS011;40640;48.130;11.356;2022-09-29T17:33:48;4.80;;;2.72;;
54745;SDS011;40640;48.130;11.356;2022-09-29T17:37:50;5.68;;;2.72;;
54745;SDS011;40640;48.130;11.356;2022-09-29T17:41:53;4.63;;;3.47;;
54745;SDS011;40640;48.130;11.356;2022-09-29T17:45:56;5.15;;;3.80;;
54745;SDS011;40640;48.130;11.356;2022-09-29T17:50:10;7.88;;;4.00;;
54745;SDS011;40640;48.130;11.356;2022-09-29T17:54:18;6.97;;;3.80;;
54745;SDS011;40640;48.130;11.356;2022-09-29T17:58:28;5.70;;;4.00;;
54745;SDS011;40640;48.130;11.356;2022-09-29T18:02:30;8.63;;;4.50;;
54745;SDS011;40640;48.130;11.356;2022-09-29T18:06:34;8.40;;;4.68;;
54745;SDS011;40640;48.130;11.356;2022-09-29T18:10:39;11.80;;;6.00;;
54745;SDS011;40640;48.130;11.356;2022-09-29T18:14:44;9.38;;;5.40;;
54745;SDS011;40640;48.130;11.356;2022-09-29T18:18:47;10.63;;;5.57;;
54745;SDS011;40640;48.130;11.356;2022-09-29T18:22:51;8.43;;;5.28;;
54745;SDS011;40640;48.130;11.356;2022-09-29T18:26:53;10.63;;;6.43;;
54745;SDS011;40640;48.130;11.356;2022-09-29T18:30:59;8.52;;;5.53;;
54745;SDS011;40640;48.130;11.356;2022-09-29T18:35:12;8.82;;;5.80;;
54745;SDS011;40640;48.130;11.356;2022-09-29T18:39:17;8.60;;;5.90;;
54745;SDS011;40640;48.130;11.356;2022-09-29T18:43:21;5.93;;;3.72;;
54745;SDS011;40640;48.130;11.356;2022-09-29T18:47:26;6.20;;;4.10;;
54745;SDS011;40640;48.130;11.356;2022-09-29T18:51:28;6.53;;;4.15;;
54745;SDS011;40640;48.130;11.356;2022-09-29T18:55:32;11.68;;;6.25;;
54745;SDS011;40640;48.130;11.356;2022-09-29T18:59:35;12.20;;;6.60;;
54745;SDS011;40640;48.130;11.356;2022-09-29T19:03:38;8.65;;;5.35;;
54745;SDS011;40640;48.130;11.356;2022-09-29T19:07:41;12.18;;;6.88;;
54745;SDS011;40640;48.130;11.356;2022-09-29T19:11:46;16.63;;;8.23;;
54745;SDS011;40640;48.130;11.356;2022-09-29T19:15:49;25.45;;;12.05;;
54745;SDS011;40640;48.130;11.356;2022-09-29T19:19:56;21.65;;;11.05;;
54745;SDS011;40640;48.130;11.356;2022-09-29T19:24:00;25.73;;;11.45;;
54745;SDS011;40640;48.130;11.356;2022-09-29T19:28:04;24.67;;;12.02;;
54745;SDS011;40640;48.130;11.356;2022-09-29T19:32:07;26.67;;;13.27;;
54745;SDS011;40640;48.130;11.356;2022-09-29T19:36:12;20.33;;;12.40;;
54745;SDS011;40640;48.130;11.356;2022-09-29T19:40:18;25.10;;;13.70;;
54745;SDS011;40640;48.130;11.356;2022-09-29T19:44:24;24.42;;;14.45;;
54745;SDS011;40640;48.130;11.356;2022-09-29T19:48:29;27.67;;;15.43;;
54745;SDS011;40640;48.130;11.356;2022-09-29T19:52:31;33.05;;;17.88;;
54745;SDS011;40640;48.130;11.356;2022-09-29T19:56:35;33.28;;;19.60;;
54745;SDS011;40640;48.130;11.356;2022-09-29T20:00:40;31.45;;;19.92;;
54745;SDS011;40640;48.130;11.356;2022-09-29T20:04:42;30.48;;;19.65;;
54745;SDS011;40640;48.130;11.356;2022-09-29T20:08:45;33.20;;;19.63;;
54745;SDS011;40640;48.130;11.356;2022-09-29T20:12:48;33.15;;;20.30;;
54745;SDS011;40640;48.130;11.356;2022-09-29T20:16:52;27.98;;;17.92;;
54745;SDS011;40640;48.130;11.356;2022-09-29T20:20:56;27.00;;;15.73;;
54745;SDS011;40640;48.130;11.356;2022-09-29T20:25:00;34.08;;;17.63;;
54745;SDS011;40640;48.130;11.356;2022-09-29T20:29:03;31.08;;;17.13;;
54745;SDS011;40640;48.130;11.356;2022-09-29T20:33:07;61.67;;;25.85;;
54745;SDS011;40640;48.130;11.356;2022-09-29T20:37:10;37.97;;;20.02;;
54745;SDS011;40640;48.130;11.356;2022-09-29T20:41:14;22.70;;;13.85;;
54745;SDS011;40640;48.130;11.356;2022-09-29T20:45:17;18.70;;;12.75;;
54745;SDS011;40640;48.130;11.356;2022-09-29T20:49:21;20.15;;;13.65;;
54745;SDS011;40640;48.130;11.356;2022-09-29T20:53:24;19.27;;;13.23;;
54745;SDS011;40640;48.130;11.356;2022-09-29T20:57:27;19.55;;;11.20;;
54745;SDS011;40640;48.130;11.356;2022-09-29T21:01:30;15.57;;;10.93;;
54745;SDS011;40640;48.130;11.356;2022-09-29T21:05:35;15.68;;;11.68;;
54745;SDS011;40640;48.130;11.356;2022-09-29T21:09:37;14.77;;;10.43;;
54745;SDS011;40640;48.130;11.356;2022-09-29T21:13:40;14.48;;;10.07;;
54745;SDS011;40640;48.130;11.356;2022-09-29T21:17:43;14.30;;;10.70;;
54745;SDS011;40640;48.130;11.356;2022-09-29T21:21:47;18.08;;;10.50;;
54745;SDS011;40640;48.130;11.356;2022-09-29T21:25:56;17.98;;;11.35;;
54745;SDS011;40640;48.130;11.356;2022-09-29T21:29:59;19.65;;;9.75;;
54745;SDS011;40640;48.130;11.356;2022-09-29T21:34:03;14.40;;;10.40;;
54745;SDS011;40640;48.130;11.356;2022-09-29T21:38:09;12.57;;;9.50;;
54745;SDS011;40640;48.130;11.356;2022-09-29T21:42:11;14.52;;;10.23;;
54745;SDS011;40640;48.130;11.356;2022-09-29T21:46:15;13.68;;;9.32;;
54745;SDS011;40640;48.130;11.356;2022-09-29T21:50:19;14.45;;;10.75;;
54745;SDS011;40640;48.130;11.356;2022-09-29T21:54:23;15.98;;;9.95;;
54745;SDS011;40640;48.130;11.356;2022-09-29T21:58:26;13.80;;;10.55;;
54745;SDS011;40640;48.130;11.356;2022-09-29T22:02:29;14.52;;;9.82;;
54745;SDS011;40640;48.130;11.356;2022-09-29T22:06:33;19.00;;;11.05;;
54745;SDS011;40640;48.130;11.356;2022-09-29T22:10:39;16.38;;;9.95;;
54745;SDS011;40640;48.130;11.356;2022-09-29T22:14:42;13.07;;;9.98;;
54745;SDS011;40640;48.130;11.356;2022-09-29T22:18:49;14.77;;;10.20;;
54745;SDS011;40640;48.130;11.356;2022-09-29T22:23:12;14.52;;;10.57;;
54745;SDS011;40640;48.130;11.356;2022-09-29T22:27:16;16.85;;;11.98;;
54745;SDS011;40640;48.130;11.356;2022-09-29T22:31:19;12.20;;;9.48;;
54745;SDS011;40640;48.130;11.356;2022-09-29T22:35:22;11.02;;;8.93;;
54745;SDS011;40640;48.130;11.356;2022-09-29T22:39:25;14.43;;;10.00;;
54745;SDS011;40640;48.130;11.356;2022-09-29T22:43:29;14.88;;;10.27;;
54745;SDS011;40640;48.130;11.356;2022-09-29T22:47:31;13.13;;;9.68;;
54745;SDS011;40640;48.130;11.356;2022-09-29T22:51:34;14.18;;;9.15;;
54745;SDS011;40640;48.130;11.356;2022-09-29T22:55:37;13.18;;;9.73;;
54745;SDS011;40640;48.130;11.356;2022-09-29T22:59:43;15.93;;;9.70;;
54745;SDS011;40640;48.130;11.356;2022-09-29T23:03:46;12.43;;;9.65;;
54745;SDS011;40640;48.130;11.356;2022-09-29T23:07:50;15.27;;;10.50;;
54745;SDS011;40640;48.130;11.356;2022-09-29T23:11:52;19.98;;;10.70;;
54745;SDS011;40640;48.130;11.356;2022-09-29T23:16:00;17.90;;;10.55;;
54745;SDS011;40640;48.130;11.356;2022-09-29T23:20:11;15.25;;;10.48;;
54745;SDS011;40640;48.130;11.356;2022-09-29T23:24:14;17.30;;;11.13;;
54745;SDS011;40640;48.130;11.356;2022-09-29T23:28:17;19.95;;;11.48;;
54745;SDS011;40640;48.130;11.356;2022-09-29T23:32:21;16.15;;;11.70;;
54745;SDS011;40640;48.130;11.356;2022-09-29T23:36:24;16.55;;;12.82;;
54745;SDS011;40640;48.130;11.356;2022-09-29T23:40:28;13.02;;;10.65;;
54745;SDS011;40640;48.130;11.356;2022-09-29T23:44:31;16.42;;;11.07;;
54745;SDS011;40640;48.130;11.356;2022-09-29T23:48:37;14.30;;;10.88;;
54745;SDS011;40640;48.130;11.356;2022-09-29T23:52:39;17.77;;;13.30;;
54745;SDS011;40640;48.130;11.356;2022-09-29T23:56:43;22.77;;;12.82;;
